Time;durP1;ratioP1;P1;durP2;ratioP2;P2;SDS_P1;SDS_P2;PMS_P1;PMS_P2;Temp;Humidity;BMP_temperature;BMP_pressure;BME280_temperature;BME280_humidity;BME280_pressure;Samples;Min_cycle;Max_cycle;Signal;HPM_P1;HPM_P2
2022/02/21 02:50:12;;;;;;;;;;;;;;;;;;;;;
2022/02/21 06:07:23;;;;;;;81.22;41.63;;;51.60;2227.20;;;;;;4861156;29;20064;-86
2022/02/21 06:10:41;;;;;;;86.80;46.55;;;51.70;2227.20;;;;;;4844851;29;20053;-85
2022/02/21 06:20:26;;;;;;;66.00;32.80;;;51.60;2227.20;;;;;;4757040;29;20520;-84
2022/02/21 06:23:06;;;;;;;70.65;37.88;;;51.70;2227.20;;;;;;4847840;29;20059;-84
2022/02/21 06:26:06;;;;;;;68.35;33.63;;;51.60;2227.20;;;;;;4847028;29;20025;-84
2022/02/21 06:28:38;;;;;;;59.67;29.80;;;51.60;2227.20;;;;;;4847554;29;20033;-79
2022/02/21 06:35:43;;;;;;;;;;;;;;;;;;;;;
2022/02/21 06:38:39;;;;;;;54.80;30.00;;;51.70;2227.20;;;;;;4806160;29;20019;-84
2022/02/21 06:41:14;;;;;;;80.40;36.80;;;51.80;2227.20;;;;;;4806603;29;20023;-85
2022/02/21 06:43:43;;;;;;;64.65;33.63;;;51.80;2227.20;;;;;;4806775;29;20042;-84
2022/02/21 06:46:39;;;;;;;69.75;34.05;;;51.80;2227.20;;;;;;4854996;29;20036;-86
2022/02/21 06:49:07;;;;;;;90.05;44.10;;;51.90;2227.20;;;;;;4865811;29;20044;-85
2022/02/21 06:51:50;;;;;;;83.65;43.15;;;51.90;2227.20;;;;;;4865609;29;20120;-84
2022/02/21 06:54:30;;;;;;;81.93;43.72;;;51.90;2227.20;;;;;;4865857;29;20031;-83
2022/02/21 06:57:09;;;;;;;81.95;43.67;;;52.00;2227.20;;;;;;4865295;29;20025;-86
2022/02/21 08:49:24;;;;;;;55.30;33.63;;;128.70;2252.80;;;;;;4880702;29;20048;-86
2022/02/21 08:52:11;;;;;;;65.65;41.75;;;128.80;2252.80;;;;;;4878679;29;20064;-86
2022/02/21 08:54:47;;;;;;;62.97;37.67;;;128.60;2252.80;;;;;;4862715;29;20033;-82
2022/02/21 09:01:06;;;;;;;;;;;;;;;;;;;;;
2022/02/21 09:06:16;;;;;;;59.03;37.90;;;154.30;2252.80;;;;;;4950573;23;20061;-81
2022/02/21 09:09:24;;;;;;;53.33;35.47;;;154.50;2252.80;;;;;;4863667;29;20025;-82
2022/02/21 09:11:51;;;;;;;67.72;41.58;;;154.50;2252.80;;;;;;4863263;29;20362;-81
2022/02/21 09:14:18;;;;;;;57.45;40.17;;;179.30;2252.80;;;;;;4879715;29;20037;-82
2022/02/21 09:16:47;;;;;;;46.97;31.45;;;179.40;2252.80;;;;;;4863368;29;20021;-81
2022/02/21 09:19:13;;;;;;;58.78;37.35;;;179.70;2252.80;;;;;;4862944;29;20470;-80
2022/02/21 09:21:39;;;;;;;59.38;37.92;;;179.90;2252.80;;;;;;4863397;29;20055;-81
2022/02/21 09:24:05;;;;;;;51.60;35.22;;;180.10;2252.80;;;;;;4862972;29;20382;-81
2022/02/21 09:26:32;;;;;;;59.83;37.47;;;204.90;2252.80;;;;;;4863042;29;20021;-80
2022/02/21 09:28:58;;;;;;;66.72;43.03;;;205.10;2252.80;;;;;;4863194;29;20056;-78
2022/02/21 09:31:25;;;;;;;55.95;39.75;;;205.20;2252.80;;;;;;4863028;29;20390;-78
2022/02/21 09:33:51;;;;;;;55.28;38.20;;;205.60;2252.80;;;;;;4862870;29;20077;-82
2022/02/21 09:36:17;;;;;;;54.72;39.03;;;205.70;2252.80;;;;;;4862926;29;20080;-80
2022/02/21 09:38:43;;;;;;;54.20;36.90;;;230.40;2252.80;;;;;;4863045;29;20029;-81
2022/02/21 09:41:30;;;;;;;52.58;38.00;;;230.60;2252.80;;;;;;4862637;29;20029;-81
2022/02/21 09:53:27;;;;;;;63.63;41.33;;;256.00;2252.80;;;;;;4879899;29;20056;-80
2022/02/21 09:56:22;;;;;;;50.28;34.53;;;256.30;2252.80;;;;;;4881709;29;20033;-80
2022/02/21 10:22:32;;;;;;;28.00;18.63;;;308.10;2304.00;;;;;;4881798;29;20040;-81
2022/02/21 10:34:57;;;;;;;24.10;14.63;;;358.60;2329.60;;;;;;4882574;29;20028;-86
2022/02/21 10:44:41;;;;;;;17.85;10.27;;;384.00;2329.60;;;;;;4786180;29;20384;-82
2022/02/21 10:48:20;;;;;;;;;;;;;;;;;;;;;
2022/02/21 10:51:48;;;;;;;20.85;10.18;;;384.50;2329.60;;;;;;4797513;29;20035;-84
2022/02/21 10:53:55;;;;;;;17.25;5.40;;;384.70;2329.60;;;;;;4803480;29;20039;-83
2022/02/21 10:56:21;;;;;;;21.10;6.75;;;384.80;2304.00;;;;;;4791083;29;20039;-83
2022/02/21 10:58:50;;;;;;;12.43;6.38;;;384.90;2329.60;;;;;;4791409;29;20039;-82
2022/02/21 11:01:23;;;;;;;13.70;5.75;;;409.70;2355.20;;;;;;4808883;29;20050;-85
2022/02/21 11:03:50;;;;;;;21.92;11.10;;;409.90;2329.60;;;;;;4864748;29;20104;-84
2022/02/21 11:06:16;;;;;;;17.08;10.75;;;410.00;2304.00;;;;;;4864852;29;20085;-81
2022/02/21 11:08:42;;;;;;;14.13;6.43;;;410.20;2278.40;;;;;;4865006;29;20117;-80
2022/02/21 11:39:26;;;;;;;14.77;5.72;;;435.80;2150.40;;;;;;5543895;23;20047;-87
2022/02/21 11:58:13;;;;;;;12.65;6.80;;;461.60;1996.80;;;;;;5468904;23;20056;-82
2022/02/21 12:00:40;;;;;;;16.00;9.30;;;461.70;1971.20;;;;;;4881340;29;20027;-81
2022/02/21 12:03:46;;;;;;;10.02;5.85;;;486.70;1945.60;;;;;;4882264;29;20036;-82
2022/02/21 12:06:18;;;;;;;17.27;10.93;;;486.70;1945.60;;;;;;4882238;29;20476;-83
2022/02/21 12:20:45;;;;;;;11.48;7.32;;;512.00;1843.20;;;;;;5316799;23;20064;-78
2022/02/21 12:23:16;;;;;;;19.02;8.70;;;512.20;1843.20;;;;;;4882849;29;20067;-78
2022/02/21 12:25:57;;;;;;;10.75;6.22;;;512.30;1792.00;;;;;;4882327;29;20048;-76
2022/02/21 12:28:24;;;;;;;12.27;7.47;;;512.40;1792.00;;;;;;4882291;29;20474;-78
2022/02/21 12:30:55;;;;;;;13.32;8.00;;;512.50;1766.40;;;;;;4882406;29;20028;-79
2022/02/21 12:33:43;;;;;;;10.95;6.18;;;512.50;1792.00;;;;;;4882123;29;20044;-81
2022/02/21 12:36:14;;;;;;;11.13;6.88;;;512.80;1766.40;;;;;;4881932;29;20430;-81
2022/02/21 12:39:10;;;;;;;13.18;8.88;;;537.70;1766.40;;;;;;4882281;29;20027;-80
2022/02/21 12:52:33;;;;;;;11.20;6.28;;;538.10;1689.60;;;;;;4749010;30;20509;-80
2022/02/21 13:01:41;;;;;;;10.68;7.43;;;538.00;1664.00;;;;;;4805979;29;20038;-80
2022/02/21 13:04:08;;;;;;;13.35;8.07;;;538.10;1689.60;;;;;;4872489;29;20430;-79
2022/02/21 13:06:35;;;;;;;13.95;7.63;;;538.50;1664.00;;;;;;4878419;29;20088;-78
2022/02/21 13:16:20;;;;;;;18.67;11.30;;;538.20;1689.60;;;;;;4917207;29;20084;-81
2022/02/21 13:18:52;;;;;;;19.05;11.77;;;538.30;1689.60;;;;;;4894581;29;20052;-81
2022/02/21 13:21:37;;;;;;;18.65;11.80;;;538.20;1689.60;;;;;;4881680;29;20049;-82
2022/02/21 13:24:05;;;;;;;12.85;8.00;;;538.20;1689.60;;;;;;4881345;29;20033;-81
2022/02/21 13:26:54;;;;;;;16.85;10.38;;;563.20;1689.60;;;;;;4885034;29;20025;-82
2022/02/21 13:46:43;;;;;;;10.70;6.93;;;538.50;1612.80;;;;;;5274762;23;20068;-81
2022/02/21 13:49:08;;;;;;;14.98;7.65;;;538.50;1612.80;;;;;;4885454;29;20135;-79
2022/02/21 13:51:34;;;;;;;14.45;7.47;;;538.30;1612.80;;;;;;4884674;29;20532;-83
2022/02/21 13:54:00;;;;;;;14.45;8.68;;;538.30;1612.80;;;;;;4885053;29;20389;-77
2022/02/21 13:56:26;;;;;;;18.40;12.40;;;538.10;1638.40;;;;;;4901935;29;20033;-80
2022/02/21 13:58:58;;;;;;;17.40;12.27;;;538.40;1612.80;;;;;;4884944;29;20536;-76
2022/02/21 14:01:28;;;;;;;17.20;11.75;;;538.50;1612.80;;;;;;4884989;29;20052;-77
2022/02/21 14:04:08;;;;;;;23.15;14.80;;;563.40;1612.80;;;;;;4884814;29;20397;-78
2022/02/21 14:06:36;;;;;;;16.95;11.82;;;563.60;1612.80;;;;;;4884452;29;20026;-80
2022/02/21 14:09:25;;;;;;;12.73;5.78;;;563.40;1587.20;;;;;;4901548;29;20036;-78
2022/02/21 14:11:51;;;;;;;12.60;5.85;;;538.20;1561.60;;;;;;4901856;29;20373;-80
2022/02/21 14:14:28;;;;;;;13.98;6.75;;;537.70;1587.20;;;;;;4884356;29;20108;-83
2022/02/21 14:17:43;;;;;;;25.73;17.15;;;512.90;1561.60;;;;;;4884669;29;20040;-79
2022/02/21 15:24:46;;;;;;;20.52;13.50;;;435.40;1945.60;;;;;;4901215;29;20040;-84
2022/02/21 15:27:14;;;;;;;23.58;11.27;;;435.50;1945.60;;;;;;4876556;29;20041;-83
2022/02/21 15:29:43;;;;;;;17.25;9.00;;;435.40;1971.20;;;;;;4882902;29;20111;-84
2022/02/21 15:32:09;;;;;;;22.23;11.27;;;435.30;1971.20;;;;;;4883637;29;20028;-84
2022/02/21 15:34:43;;;;;;;27.55;12.63;;;435.30;1971.20;;;;;;4883015;29;20394;-85
2022/02/21 15:37:14;;;;;;;18.27;8.27;;;435.30;1996.80;;;;;;4883303;29;20485;-85
2022/02/21 15:39:40;;;;;;;20.80;12.60;;;460.80;2022.40;;;;;;4883350;29;20081;-88
2022/02/21 15:42:10;;;;;;;17.88;9.15;;;435.20;2022.40;;;;;;4905989;29;20109;-85
2022/02/21 15:44:36;;;;;;;24.73;12.50;;;410.50;2022.40;;;;;;4891341;29;20454;-83
2022/02/21 15:47:02;;;;;;;19.85;12.02;;;410.50;2022.40;;;;;;4883908;29;20036;-88
2022/02/21 15:49:29;;;;;;;21.75;11.93;;;410.50;2022.40;;;;;;4883278;29;20071;-85
2022/02/21 15:51:56;;;;;;;27.50;13.32;;;410.50;2022.40;;;;;;4883246;29;20072;-87
2022/02/21 15:54:24;;;;;;;30.52;19.02;;;410.00;2048.00;;;;;;4883094;29;20096;-85
2022/02/21 15:56:51;;;;;;;20.88;11.90;;;410.40;2048.00;;;;;;4882938;29;20073;-84
2022/02/21 15:59:29;;;;;;;23.63;14.75;;;410.40;2048.00;;;;;;4892943;29;20024;-84
2022/02/21 16:01:59;;;;;;;28.30;17.63;;;410.30;2048.00;;;;;;4881798;29;20111;-84
2022/02/21 16:15:24;;;;;;;18.20;11.48;;;410.20;2099.20;;;;;;4841615;29;20033;-81
2022/02/21 16:25:56;;;;;;;29.35;19.10;;;410.00;2099.20;;;;;;4769035;30;20032;-85
2022/02/21 16:31:34;;;;;;;27.88;20.83;;;410.00;2099.20;;;;;;4768969;30;20611;-86
2022/02/21 17:00:55;;;;;;;33.25;23.05;;;409.70;2150.40;;;;;;4801414;29;20048;-86
2022/02/21 17:10:58;;;;;;;;;;;;;;;;;;;;;
2022/02/21 17:55:28;;;;;;;;;;;;;;;;;;;;;
2022/02/21 18:20:05;;;;;;;16.20;7.75;;;384.10;2176.00;;;;;;4771609;30;20047;-86
2022/02/21 18:22:57;;;;;;;27.63;12.25;;;384.10;2176.00;;;;;;4771421;30;20028;-85
2022/02/21 18:49:59;;;;;;;;;;;;;;;;;;;;;
2022/02/21 20:16:33;;;;;;;14.90;8.45;;;358.80;2150.40;;;;;;5464097;23;20196;-84
2022/02/21 20:18:59;;;;;;;28.48;14.23;;;358.80;2150.40;;;;;;4861539;29;20511;-80
2022/02/21 20:21:50;;;;;;;19.83;9.13;;;358.80;2150.40;;;;;;4882071;29;20111;-82
2022/02/21 20:24:19;;;;;;;13.93;7.70;;;358.80;2176.00;;;;;;4882197;29;20477;-80
2022/02/21 20:27:00;;;;;;;19.15;12.05;;;358.80;2176.00;;;;;;4881437;29;20028;-83
2022/02/21 20:29:29;;;;;;;19.83;9.68;;;358.80;2176.00;;;;;;4882321;29;20025;-79
2022/02/21 20:33:16;;;;;;;13.80;7.78;;;358.80;2150.40;;;;;;4882129;29;20029;-80
2022/02/21 20:35:38;;;;;;;15.90;10.95;;;358.80;2176.00;;;;;;4837923;29;20041;-78
2022/02/21 20:38:07;;;;;;;27.77;15.48;;;358.70;2176.00;;;;;;4825934;29;20122;-77
2022/02/21 20:40:34;;;;;;;13.38;6.93;;;358.70;2176.00;;;;;;4864830;29;20043;-80
2022/02/21 20:43:01;;;;;;;15.30;11.43;;;358.80;2150.40;;;;;;4882110;29;20040;-79
2022/02/21 20:45:27;;;;;;;20.02;14.68;;;358.80;2176.00;;;;;;4882258;29;20553;-79
2022/02/21 20:47:53;;;;;;;22.92;13.68;;;358.70;2176.00;;;;;;4881820;29;20155;-79
2022/02/21 20:50:20;;;;;;;29.90;17.27;;;358.70;2176.00;;;;;;4882065;29;20116;-80
2022/02/21 20:52:50;;;;;;;29.88;20.25;;;358.60;2176.00;;;;;;4882069;29;20033;-78
2022/02/21 20:55:37;;;;;;;47.35;29.52;;;358.60;2176.00;;;;;;4884079;29;20071;-80
2022/02/21 20:58:15;;;;;;;21.83;13.52;;;358.60;2201.60;;;;;;4899978;29;20048;-79
2022/02/21 21:01:08;;;;;;;21.75;14.32;;;358.60;2176.00;;;;;;4900006;29;20063;-80
2022/02/21 21:06:38;;;;;;;15.27;8.03;;;358.60;2150.40;;;;;;4906911;29;20036;-82
2022/02/21 21:09:07;;;;;;;16.33;8.30;;;358.60;2150.40;;;;;;4900038;29;20364;-79
2022/02/21 21:11:36;;;;;;;15.88;10.13;;;358.60;2150.40;;;;;;4899935;29;20035;-78
2022/02/21 21:14:24;;;;;;;24.88;13.35;;;358.60;2150.40;;;;;;4900304;29;20024;-81
2022/02/21 21:16:59;;;;;;;14.30;8.30;;;358.50;2150.40;;;;;;4899542;29;20499;-81
2022/02/21 21:19:26;;;;;;;12.30;6.43;;;358.60;2150.40;;;;;;4900394;29;20032;-81
2022/02/21 21:21:52;;;;;;;25.67;18.52;;;358.60;2150.40;;;;;;4900269;29;20024;-81
2022/02/21 21:24:18;;;;;;;24.20;17.95;;;358.60;2150.40;;;;;;4900105;29;20123;-80
2022/02/21 23:17:14;;;;;;;38.73;18.83;;;307.80;2304.00;;;;;;4916434;23;20108;-83
2022/02/21 23:20:23;;;;;;;58.05;26.33;;;307.80;2304.00;;;;;;4898152;29;20067;-86
